createdAt,value
2018-08-11T00:01:04.698Z,1.27
2018-08-11T00:04:07.927Z,1.17
2018-08-11T00:07:11.218Z,1.17
2018-08-11T00:10:14.425Z,1.10
2018-08-11T00:13:17.741Z,1.20
2018-08-11T00:16:21.066Z,1.20
2018-08-11T00:19:24.489Z,1.17
2018-08-11T00:22:27.778Z,1.40
2018-08-11T00:25:30.998Z,1.10
2018-08-11T00:28:34.189Z,1.30
2018-08-11T00:31:37.603Z,1.23
2018-08-11T00:34:40.806Z,1.40
2018-08-11T00:37:44.647Z,1.30
2018-08-11T00:40:48.070Z,1.33
2018-08-11T00:43:51.373Z,1.50
2018-08-11T00:50:22.005Z,1.20
2018-08-11T00:53:25.172Z,1.10
2018-08-11T00:56:28.261Z,1.30
2018-08-11T00:59:31.461Z,1.23
2018-08-11T01:02:34.782Z,1.23
2018-08-11T01:05:37.949Z,1.10
2018-08-11T01:08:41.184Z,1.30
2018-08-11T01:11:44.346Z,1.30
2018-08-11T01:14:47.588Z,1.27
2018-08-11T01:17:51.447Z,1.37
2018-08-11T01:20:54.696Z,1.40
2018-08-11T01:23:57.961Z,1.17
2018-08-11T01:27:01.621Z,1.47
2018-08-11T01:30:08.050Z,1.30
2018-08-11T01:33:11.325Z,1.50
2018-08-11T01:36:14.610Z,1.20
2018-08-11T01:39:17.839Z,1.37
2018-08-11T01:42:21.045Z,1.30
2018-08-11T01:45:24.210Z,1.47
2018-08-11T01:48:27.514Z,1.10
2018-08-11T01:51:30.793Z,1.50
2018-08-11T01:54:33.873Z,1.07
2018-08-11T01:57:36.953Z,1.30
2018-08-11T02:00:40.037Z,1.00
2018-08-11T02:03:43.101Z,1.20
2018-08-11T02:06:46.156Z,1.37
2018-08-11T02:09:49.227Z,1.40
2018-08-11T02:12:52.272Z,1.40
2018-08-11T02:15:55.332Z,1.10
2018-08-11T02:18:58.417Z,1.50
2018-08-11T02:22:01.486Z,1.37
2018-08-11T02:25:05.729Z,1.40
2018-08-11T02:28:08.825Z,1.30
2018-08-11T02:31:11.897Z,1.40
2018-08-11T02:34:15.121Z,1.67
2018-08-11T02:37:18.121Z,1.10
2018-08-11T02:40:21.184Z,1.40
2018-08-11T02:43:24.265Z,1.60
2018-08-11T02:46:27.397Z,1.57
2018-08-11T02:49:30.474Z,1.30
2018-08-11T02:52:33.521Z,1.23
2018-08-11T02:55:36.599Z,1.30
2018-08-11T02:58:39.737Z,1.40
2018-08-11T03:01:42.814Z,1.50
2018-08-11T03:04:45.873Z,1.50
2018-08-11T03:07:48.958Z,1.30
2018-08-11T03:10:52.048Z,1.60
2018-08-11T03:13:55.259Z,1.20
2018-08-11T03:16:58.209Z,1.30
2018-08-11T03:20:01.290Z,1.20
2018-08-11T03:23:04.378Z,1.30
2018-08-11T03:26:07.441Z,1.53
2018-08-11T03:29:10.528Z,1.27
2018-08-11T03:32:13.575Z,1.50
2018-08-11T03:35:16.654Z,1.23
2018-08-11T03:38:19.732Z,1.43
2018-08-11T03:41:22.805Z,1.40
2018-08-11T03:44:25.868Z,1.30
2018-08-11T03:47:28.938Z,1.60
2018-08-11T03:50:32.007Z,1.57
2018-08-11T03:53:35.068Z,1.30
2018-08-11T03:56:38.117Z,1.10
2018-08-11T03:59:41.237Z,1.37
2018-08-11T04:02:44.304Z,1.33
2018-08-11T04:05:47.404Z,1.50
2018-08-11T04:08:50.497Z,1.37
2018-08-11T04:11:54.521Z,1.30
2018-08-11T04:14:57.601Z,1.20
2018-08-11T04:18:00.669Z,1.23
2018-08-11T04:21:03.725Z,1.53
2018-08-11T04:24:06.992Z,1.50
2018-08-11T04:27:10.054Z,1.60
2018-08-11T04:30:13.125Z,1.37
2018-08-11T04:33:16.188Z,1.50
2018-08-11T04:36:19.265Z,1.30
2018-08-11T04:39:22.338Z,1.40
2018-08-11T04:42:25.417Z,1.40
2018-08-11T04:45:28.491Z,1.27
2018-08-11T04:48:31.557Z,1.80
2018-08-11T04:51:34.626Z,1.23
2018-08-11T04:54:37.703Z,1.50
2018-08-11T04:57:40.745Z,1.60
2018-08-11T05:00:43.892Z,1.80
2018-08-11T05:03:46.885Z,1.43
2018-08-11T05:06:50.013Z,1.60
2018-08-11T05:09:53.081Z,1.60
2018-08-11T05:12:56.149Z,1.50
2018-08-11T05:15:59.224Z,1.70
2018-08-11T05:19:02.319Z,1.87
2018-08-11T05:22:05.383Z,1.53
2018-08-11T05:25:08.453Z,1.80
2018-08-11T05:28:11.517Z,2.17
2018-08-11T05:31:14.577Z,1.83
2018-08-11T05:34:17.625Z,1.80
2018-08-11T05:37:20.690Z,1.60
2018-08-11T05:40:23.768Z,1.67
2018-08-11T05:43:26.857Z,1.30
2018-08-11T05:46:29.923Z,1.47
2018-08-11T05:49:33.762Z,1.60
2018-08-11T05:52:36.824Z,1.50
2018-08-11T05:55:39.950Z,1.73
2018-08-11T05:58:42.996Z,2.20
2018-08-11T06:01:46.212Z,2.00
2018-08-11T06:04:49.281Z,1.80
2018-08-11T06:07:52.361Z,1.80
2018-08-11T06:10:55.465Z,1.83
2018-08-11T06:13:58.528Z,2.43
2018-08-11T06:17:01.593Z,2.10
2018-08-11T06:20:05.884Z,2.10
2018-08-11T06:23:08.958Z,1.90
2018-08-11T06:26:12.057Z,2.40
2018-08-11T06:29:15.453Z,2.47
2018-08-11T06:32:24.586Z,2.60
2018-08-11T06:35:27.674Z,2.00
2018-08-11T06:38:31.634Z,1.97
2018-08-11T06:41:34.736Z,2.07
2018-08-11T06:44:37.788Z,2.50
2018-08-11T06:47:48.792Z,2.10
2018-08-11T06:50:51.904Z,5.20
2018-08-11T06:53:54.957Z,3.70
2018-08-11T06:56:58.037Z,2.33
2018-08-11T07:00:01.153Z,2.20
2018-08-11T07:03:04.261Z,1.80
2018-08-11T07:06:13.480Z,1.90
2018-08-11T07:09:16.560Z,2.57
2018-08-11T07:12:19.777Z,2.60
2018-08-11T07:15:22.891Z,1.70
2018-08-11T07:18:25.941Z,1.90
2018-08-11T07:21:29.083Z,2.40
2018-08-11T07:24:32.066Z,1.80
2018-08-11T07:27:35.141Z,1.27
2018-08-11T07:30:38.197Z,1.72
2018-08-11T07:33:41.277Z,1.80
2018-08-11T07:36:44.375Z,1.60
2018-08-11T07:39:47.510Z,1.87
2018-08-11T07:42:50.609Z,1.70
2018-08-11T07:45:53.692Z,1.83
2018-08-11T07:48:56.775Z,1.40
2018-08-11T07:51:59.840Z,1.00
2018-08-11T07:55:02.909Z,1.60
2018-08-11T07:58:06.310Z,2.50
2018-08-11T08:01:09.374Z,1.60
2018-08-11T08:04:12.433Z,1.60
2018-08-11T08:07:15.511Z,1.47
2018-08-11T08:10:18.584Z,1.20
2018-08-11T08:13:21.653Z,1.10
2018-08-11T08:16:24.741Z,1.13
2018-08-11T08:19:27.812Z,0.90
2018-08-11T08:22:30.942Z,1.10
2018-08-11T08:25:34.000Z,1.20
2018-08-11T08:28:37.060Z,1.87
2018-08-11T08:31:40.125Z,1.63
2018-08-11T08:34:43.201Z,1.00
2018-08-11T08:37:46.273Z,1.00
2018-08-11T08:40:49.355Z,1.10
2018-08-11T08:43:52.463Z,1.33
2018-08-11T08:46:55.556Z,1.10
2018-08-11T08:49:58.633Z,1.13
2018-08-11T08:53:01.703Z,1.00
2018-08-11T08:56:04.908Z,1.20
2018-08-11T08:59:08.028Z,1.23
2018-08-11T09:02:11.057Z,1.20
2018-08-11T09:05:14.115Z,0.90
2018-08-11T09:08:17.177Z,1.00
2018-08-11T09:11:20.253Z,1.20
2018-08-11T09:14:23.329Z,1.60
2018-08-11T09:17:26.520Z,1.87
2018-08-11T09:20:29.590Z,1.30
2018-08-11T09:23:32.626Z,1.20
2018-08-11T09:26:35.705Z,1.50
2018-08-11T09:29:55.175Z,1.80
2018-08-11T09:32:58.239Z,1.20
2018-08-11T09:36:01.421Z,1.30
2018-08-11T09:39:06.820Z,1.60
2018-08-11T09:42:09.885Z,1.53
2018-08-11T09:45:12.974Z,1.97
2018-08-11T09:48:20.210Z,1.50
2018-08-11T09:51:23.264Z,2.00
2018-08-11T09:54:26.352Z,1.73
2018-08-11T09:57:29.425Z,1.53
2018-08-11T10:00:37.994Z,1.87
2018-08-11T10:03:41.072Z,1.50
2018-08-11T10:06:44.148Z,1.53
2018-08-11T10:10:04.907Z,1.60
2018-08-11T10:13:07.989Z,2.17
2018-08-11T10:16:11.061Z,5.40
2018-08-11T10:19:14.139Z,1.87
2018-08-11T10:22:17.307Z,1.40
2018-08-11T10:25:20.503Z,1.50
2018-08-11T10:28:23.685Z,1.53
2018-08-11T10:31:26.885Z,1.63
2018-08-11T10:34:30.257Z,1.83
2018-08-11T10:40:43.338Z,2.03
2018-08-11T10:43:48.781Z,1.63
2018-08-11T10:46:52.094Z,1.80
2018-08-11T10:49:55.365Z,1.50
2018-08-11T10:52:59.398Z,1.70
2018-08-11T10:56:02.622Z,1.70
2018-08-11T10:59:05.824Z,3.10
2018-08-11T11:02:09.045Z,1.63
2018-08-11T11:05:12.270Z,1.63
2018-08-11T11:08:15.498Z,2.07
2018-08-11T11:11:18.634Z,2.10
2018-08-11T11:14:21.925Z,1.90
2018-08-11T11:17:25.062Z,1.90
2018-08-11T11:20:28.253Z,1.70
2018-08-11T11:23:31.545Z,1.90
2018-08-11T11:26:34.739Z,1.80
2018-08-11T11:29:37.922Z,3.60
2018-08-11T11:32:41.122Z,1.77
2018-08-11T11:35:44.326Z,1.70
2018-08-11T11:38:47.521Z,1.50
2018-08-11T11:41:50.711Z,2.00
2018-08-11T11:44:53.890Z,1.63
2018-08-11T11:47:57.522Z,1.47
2018-08-11T11:51:00.717Z,1.50
2018-08-11T11:54:03.937Z,1.67
2018-08-11T11:57:07.573Z,1.40
2018-08-11T12:00:10.685Z,1.60
2018-08-11T12:03:13.740Z,1.53
2018-08-11T12:06:16.850Z,1.40
2018-08-11T12:09:19.925Z,2.00
2018-08-11T12:12:23.019Z,1.60
2018-08-11T12:15:26.081Z,2.00
2018-08-11T12:18:29.147Z,1.80
2018-08-11T12:21:32.215Z,1.70
2018-08-11T12:24:35.264Z,2.13
2018-08-11T12:27:38.353Z,2.33
2018-08-11T12:30:41.416Z,2.00
2018-08-11T12:33:44.460Z,1.90
2018-08-11T12:36:47.529Z,2.10
2018-08-11T12:39:58.445Z,2.40
2018-08-11T12:43:01.509Z,2.70
2018-08-11T12:46:04.577Z,2.50
2018-08-11T12:49:07.656Z,2.30
2018-08-11T12:52:10.730Z,2.03
2018-08-11T12:55:13.793Z,2.13
2018-08-11T12:58:16.865Z,2.23
2018-08-11T13:01:19.949Z,2.60
2018-08-11T13:04:23.023Z,2.30
2018-08-11T13:07:26.099Z,2.27
2018-08-11T13:10:29.145Z,1.87
2018-08-11T13:13:32.206Z,2.10
2018-08-11T13:16:35.481Z,2.30
2018-08-11T13:19:38.689Z,2.00
2018-08-11T13:22:41.914Z,1.83
2018-08-11T13:25:45.130Z,1.90
2018-08-11T13:28:48.386Z,1.70
2018-08-11T13:31:51.630Z,2.20
2018-08-11T13:34:54.897Z,2.10
2018-08-11T13:37:58.213Z,1.80
2018-08-11T13:41:01.415Z,1.87
2018-08-11T13:44:04.602Z,2.20
2018-08-11T13:47:07.805Z,2.80
2018-08-11T13:50:10.900Z,1.97
2018-08-11T13:53:13.950Z,2.30
2018-08-11T13:56:17.012Z,2.70
2018-08-11T13:59:20.081Z,2.23
2018-08-11T14:02:23.145Z,2.50
2018-08-11T14:05:26.223Z,2.33
2018-08-11T14:08:29.277Z,2.30
2018-08-11T14:11:32.329Z,1.93
2018-08-11T14:14:36.121Z,1.90
2018-08-11T14:17:39.213Z,1.80
2018-08-11T14:20:42.292Z,2.20
2018-08-11T14:23:45.342Z,1.80
2018-08-11T14:26:48.409Z,1.83
2018-08-11T14:29:51.463Z,2.10
2018-08-11T14:32:54.520Z,2.10
2018-08-11T14:35:57.584Z,2.50
2018-08-11T14:39:00.645Z,2.20
2018-08-11T14:42:03.724Z,2.43
2018-08-11T14:45:08.681Z,1.70
2018-08-11T14:48:11.796Z,1.80
2018-08-11T14:51:14.868Z,2.00
2018-08-11T14:54:17.941Z,2.30
2018-08-11T14:57:21.029Z,1.80
2018-08-11T15:00:24.113Z,1.40
2018-08-11T15:03:27.185Z,1.77
2018-08-11T15:06:30.269Z,1.57
2018-08-11T15:09:33.336Z,1.57
2018-08-11T15:12:36.422Z,1.50
2018-08-11T15:15:39.460Z,1.50
2018-08-11T15:18:42.525Z,1.70
2018-08-11T15:21:45.594Z,1.80
2018-08-11T15:24:48.640Z,1.90
2018-08-11T15:27:51.714Z,1.60
2018-08-11T15:30:54.773Z,1.60
2018-08-11T15:33:57.837Z,1.60
2018-08-11T15:37:00.913Z,1.60
2018-08-11T15:40:04.581Z,1.70
2018-08-11T15:43:07.656Z,1.33
2018-08-11T15:46:10.704Z,1.50
2018-08-11T15:49:13.781Z,1.90
2018-08-11T15:52:16.849Z,1.77
2018-08-11T15:55:19.917Z,1.70
2018-08-11T15:58:23.028Z,1.80
2018-08-11T16:01:26.145Z,1.80
2018-08-11T16:04:29.218Z,1.80
2018-08-11T16:07:32.308Z,1.80
2018-08-11T16:10:35.405Z,1.60
2018-08-11T16:13:38.452Z,1.70
2018-08-11T16:16:41.538Z,1.77
2018-08-11T16:19:44.593Z,1.87
2018-08-11T16:22:47.673Z,1.70
2018-08-11T16:25:50.801Z,1.97
2018-08-11T16:28:53.860Z,1.67
2018-08-11T16:31:57.007Z,1.67
2018-08-11T16:35:00.029Z,1.47
2018-08-11T16:38:03.113Z,1.80
2018-08-11T16:41:06.612Z,2.10
2018-08-11T16:44:09.657Z,2.03
2018-08-11T16:47:12.765Z,2.00
2018-08-11T16:50:15.859Z,4.63
2018-08-11T16:53:18.936Z,3.10
2018-08-11T16:56:22.047Z,2.30
2018-08-11T16:59:26.092Z,2.40
2018-08-11T17:02:29.117Z,2.10
2018-08-11T17:05:32.194Z,1.90
2018-08-11T17:08:35.269Z,1.90
2018-08-11T17:11:38.400Z,2.17
2018-08-11T17:14:41.521Z,2.07
2018-08-11T17:17:44.600Z,1.80
2018-08-11T17:20:47.722Z,2.00
2018-08-11T17:23:50.785Z,2.10
2018-08-11T17:26:53.867Z,2.00
2018-08-11T17:29:56.933Z,2.10
2018-08-11T17:32:59.990Z,2.50
2018-08-11T17:36:03.057Z,2.30
2018-08-11T17:39:07.599Z,2.60
2018-08-11T17:42:10.640Z,2.30
2018-08-11T17:45:13.717Z,5.93
2018-08-11T17:48:16.781Z,2.43
2018-08-11T17:51:19.844Z,2.60
2018-08-11T17:54:22.960Z,2.50
2018-08-11T17:57:26.033Z,2.10
2018-08-11T18:00:29.144Z,2.10
2018-08-11T18:03:32.219Z,2.40
2018-08-11T18:06:35.281Z,2.33
2018-08-11T18:09:38.358Z,2.23
2018-08-11T18:12:41.440Z,2.90
2018-08-11T18:15:44.508Z,2.60
2018-08-11T18:18:47.593Z,2.20
2018-08-11T18:21:50.665Z,2.20
2018-08-11T18:24:53.747Z,2.13
2018-08-11T18:27:56.821Z,2.30
2018-08-11T18:30:59.881Z,2.47
2018-08-11T18:34:02.951Z,2.10
2018-08-11T18:37:06.158Z,4.40
2018-08-11T18:40:09.240Z,2.60
2018-08-11T18:43:12.627Z,2.50
2018-08-11T18:46:15.633Z,3.23
2018-08-11T18:49:18.729Z,2.73
2018-08-11T18:52:21.821Z,2.30
2018-08-11T18:55:24.861Z,2.77
2018-08-11T18:58:27.940Z,3.27
2018-08-11T19:01:31.008Z,2.43
2018-08-11T19:04:34.092Z,2.40
2018-08-11T19:07:37.247Z,2.67
2018-08-11T19:10:45.953Z,2.97
2018-08-11T19:13:49.108Z,2.73
2018-08-11T19:16:52.174Z,2.60
2018-08-11T19:19:55.374Z,2.70
2018-08-11T19:22:58.300Z,3.50
2018-08-11T19:26:01.394Z,4.10
2018-08-11T19:29:04.446Z,3.43
2018-08-11T19:32:07.501Z,3.00
2018-08-11T19:35:10.573Z,2.90
2018-08-11T19:38:13.655Z,4.47
2018-08-11T19:41:16.714Z,4.30
2018-08-11T19:44:19.797Z,7.00
2018-08-11T19:47:22.857Z,4.50
2018-08-11T19:50:25.924Z,2.80
2018-08-11T19:53:29.002Z,3.20
2018-08-11T19:56:32.185Z,4.03
2018-08-11T19:59:53.562Z,3.17
2018-08-11T20:02:56.629Z,3.23
2018-08-11T20:05:59.708Z,3.50
2018-08-11T20:09:02.788Z,3.03
2018-08-11T20:12:05.973Z,3.40
2018-08-11T20:15:09.898Z,2.70
2018-08-11T20:18:12.953Z,3.00
2018-08-11T20:21:16.045Z,2.60
2018-08-11T20:24:19.126Z,4.43
2018-08-11T20:27:22.201Z,3.13
2018-08-11T20:30:25.292Z,2.73
2018-08-11T20:33:28.427Z,4.07
2018-08-11T20:36:31.501Z,2.90
2018-08-11T20:39:34.576Z,2.50
2018-08-11T20:42:37.653Z,2.40
2018-08-11T20:45:40.710Z,2.97
2018-08-11T20:48:43.768Z,2.53
2018-08-11T20:51:46.846Z,3.20
2018-08-11T20:54:49.938Z,8.07
2018-08-11T20:57:53.018Z,7.03
2018-08-11T21:00:56.126Z,4.83
2018-08-11T21:03:59.186Z,2.77
2018-08-11T21:07:02.272Z,3.10
2018-08-11T21:10:07.233Z,3.20
2018-08-11T21:13:10.294Z,3.23
2018-08-11T21:16:13.364Z,3.50
2018-08-11T21:19:16.428Z,3.27
2018-08-11T21:22:19.505Z,3.13
2018-08-11T21:25:22.570Z,3.33
2018-08-11T21:28:25.645Z,3.37
2018-08-11T21:31:28.721Z,3.63
2018-08-11T21:34:33.793Z,3.20
2018-08-11T21:37:36.868Z,3.50
2018-08-11T21:40:39.927Z,3.30
2018-08-11T21:43:43.533Z,3.30
2018-08-11T21:46:46.609Z,3.03
2018-08-11T21:49:49.673Z,2.70
2018-08-11T21:52:52.749Z,2.87
2018-08-11T21:55:55.833Z,3.40
2018-08-11T21:58:58.894Z,2.70
2018-08-11T22:02:02.012Z,2.87
2018-08-11T22:05:05.097Z,3.00
2018-08-11T22:08:08.218Z,3.10
2018-08-11T22:11:11.309Z,2.80
2018-08-11T22:14:14.353Z,3.10
2018-08-11T22:17:17.421Z,3.27
2018-08-11T22:20:20.626Z,2.90
2018-08-11T22:23:23.705Z,3.10
2018-08-11T22:26:26.773Z,2.93
2018-08-11T22:29:29.849Z,3.20
2018-08-11T22:32:32.941Z,8.60
2018-08-11T22:35:36.009Z,9.20
2018-08-11T22:38:39.085Z,3.47
2018-08-11T22:41:42.149Z,3.30
2018-08-11T22:44:45.201Z,3.50
2018-08-11T22:47:48.296Z,3.40
2018-08-11T22:50:51.337Z,3.40
2018-08-11T22:53:54.404Z,3.00
2018-08-11T22:56:57.486Z,3.30
2018-08-11T23:00:00.573Z,3.20
2018-08-11T23:03:03.979Z,3.30
2018-08-11T23:06:07.077Z,3.90
2018-08-11T23:09:10.161Z,3.70
2018-08-11T23:12:13.289Z,3.90
2018-08-11T23:15:17.829Z,3.40
2018-08-11T23:18:20.913Z,3.50
2018-08-11T23:21:24.005Z,3.70
2018-08-11T23:24:27.072Z,3.60
2018-08-11T23:27:30.138Z,4.23
2018-08-11T23:30:33.229Z,3.60
2018-08-11T23:33:36.337Z,3.50
2018-08-11T23:36:57.982Z,3.33
2018-08-11T23:40:01.041Z,3.50
2018-08-11T23:43:04.158Z,3.40
2018-08-11T23:46:07.211Z,3.20
2018-08-11T23:49:10.280Z,3.33
2018-08-11T23:52:13.333Z,3.27
2018-08-11T23:55:16.392Z,3.03
2018-08-11T23:58:19.502Z,3.40
